Time;durP1;ratioP1;P1;durP2;ratioP2;P2;SDS_P1;SDS_P2;PMS_P1;PMS_P2;Temp;Humidity;BMP_temperature;BMP_pressure;BME280_temperature;BME280_humidity;BME280_pressure;Samples;Min_cycle;Max_cycle;Signal;HPM_P1;HPM_P2
2023/04/12 00:00:55;;;;;;;30.45;13.38;;;;;;;-144.73;100.00;54432.31;5038871;28;20060;-73
2023/04/12 00:03:20;;;;;;;45.42;16.77;;;;;;;-144.73;100.00;54436.44;5014250;28;20021;-73
2023/04/12 00:05:47;;;;;;;44.17;16.20;;;;;;;-144.73;100.00;54424.13;5018170;28;20033;-72
2023/04/12 00:08:13;;;;;;;39.45;17.10;;;;;;;-144.73;100.00;54491.84;5044440;28;20034;-72
2023/04/12 00:10:38;;;;;;;41.33;12.57;;;;;;;-144.73;100.00;54456.97;5033297;28;20109;-72
2023/04/12 00:13:04;;;;;;;33.58;15.00;;;;;;;-144.73;100.00;54456.97;5031974;28;20100;-73
2023/04/12 00:15:29;;;;;;;27.77;13.20;;;;;;;-144.73;100.00;54442.59;5032971;28;20029;-72
2023/04/12 00:17:55;;;;;;;34.25;14.85;;;;;;;-144.73;100.00;54481.59;5014934;28;20024;-73
2023/04/12 00:20:20;;;;;;;28.17;12.57;;;;;;;-144.73;100.00;54407.69;5019712;28;20037;-72
2023/04/12 00:22:46;;;;;;;33.50;14.15;;;;;;;-144.73;100.00;54417.97;5032277;28;20021;-72
2023/04/12 00:25:11;;;;;;;23.27;12.18;;;;;;;-144.73;100.00;54436.44;5014728;28;20025;-72
2023/04/12 00:27:36;;;;;;;27.58;11.68;;;;;;;-144.73;100.00;54448.75;5026026;28;20075;-72
2023/04/12 00:30:02;;;;;;;34.17;11.25;;;;;;;-144.73;100.00;54420.00;5026254;28;20107;-72
2023/04/12 00:32:28;;;;;;;25.77;10.88;;;;;;;-144.73;100.00;54485.69;5016719;28;20025;-72
2023/04/12 00:34:53;;;;;;;19.23;9.68;;;;;;;-144.73;100.00;54444.66;5048380;28;20131;-72
2023/04/12 00:37:19;;;;;;;32.60;11.15;;;;;;;-144.73;100.00;54448.75;5039570;28;20061;-73
2023/04/12 00:39:44;;;;;;;24.63;10.52;;;;;;;-144.73;100.00;54461.06;5045084;28;20020;-72
2023/04/12 00:42:10;;;;;;;32.08;11.70;;;;;;;-144.73;100.00;54452.84;5030321;28;20108;-73
2023/04/12 00:44:35;;;;;;;23.48;10.40;;;;;;;-144.73;100.00;54456.97;5019031;28;20018;-72
2023/04/12 00:47:03;;;;;;;29.25;11.25;;;;;;;-144.73;100.00;54456.97;5035975;28;20044;-73
2023/04/12 00:49:30;;;;;;;30.27;10.80;;;;;;;-144.73;100.00;54432.31;5020939;28;20034;-73
2023/04/12 00:52:03;;;;;;;28.27;10.38;;;;;;;-144.73;100.00;54465.16;5023908;28;20056;-72
2023/04/12 00:54:29;;;;;;;33.28;12.77;;;;;;;-144.73;100.00;54461.06;5023500;28;20116;-72
2023/04/12 00:56:58;;;;;;;27.50;10.88;;;;;;;-144.73;100.00;54413.84;5044715;28;20025;-73
2023/04/12 00:59:23;;;;;;;25.67;9.98;;;;;;;-144.73;100.00;54465.16;5018830;28;20017;-73
2023/04/12 01:01:49;;;;;;;24.38;10.45;;;;;;;-144.73;100.00;54444.66;5015647;28;20179;-73
2023/04/12 01:04:14;;;;;;;30.58;10.25;;;;;;;-144.73;100.00;54436.44;5013787;28;20047;-73
2023/04/12 01:07:02;;;;;;;27.00;9.23;;;;;;;-144.73;100.00;54415.91;5021780;28;20033;-73
2023/04/12 01:10:07;;;;;;;19.08;8.98;;;;;;;-144.73;100.00;54469.28;5012943;28;20033;-73
2023/04/12 01:12:49;;;;;;;28.30;9.23;;;;;;;-144.73;100.00;54444.66;5039845;28;20041;-73
2023/04/12 01:15:15;;;;;;;35.95;9.82;;;;;;;-144.73;100.00;54440.53;5020814;28;20017;-73
2023/04/12 01:17:56;;;;;;;19.00;9.18;;;;;;;-144.73;100.00;54512.38;5023274;28;20113;-74
2023/04/12 01:20:38;;;;;;;25.10;7.05;;;;;;;-144.73;100.00;54473.38;5037985;28;20037;-72
2023/04/12 01:23:16;;;;;;;23.42;8.20;;;;;;;-144.73;100.00;54483.66;5019678;28;20022;-73
2023/04/12 01:26:01;;;;;;;31.67;10.70;;;;;;;-144.73;100.00;54409.75;5040338;28;20094;-73
2023/04/12 01:28:34;;;;;;;30.95;11.52;;;;;;;-144.73;100.00;54469.28;5019114;28;20037;-73
2023/04/12 01:31:02;;;;;;;20.05;8.90;;;;;;;-144.73;100.00;54489.81;5015037;28;20049;-73
2023/04/12 01:33:30;;;;;;;29.65;11.13;;;;;;;-144.73;100.00;54493.91;5021354;28;20104;-72
2023/04/12 01:35:59;;;;;;;26.02;10.07;;;;;;;-144.73;100.00;54473.38;5039927;28;20041;-73
2023/04/12 01:38:25;;;;;;;29.60;12.18;;;;;;;-144.73;100.00;54465.16;5023814;28;20025;-73
2023/04/12 01:40:51;;;;;;;31.98;9.98;;;;;;;-144.73;100.00;54485.69;5012273;28;20033;-73
2023/04/12 01:43:17;;;;;;;23.67;11.30;;;;;;;-144.73;100.00;54465.16;5019445;28;20025;-73
2023/04/12 01:45:42;;;;;;;31.80;9.57;;;;;;;-144.73;100.00;54469.28;5034992;28;20037;-73
2023/04/12 01:48:09;;;;;;;28.42;10.52;;;;;;;-144.73;100.00;54477.47;5016854;28;20033;-73
2023/04/12 01:51:05;;;;;;;28.10;11.07;;;;;;;-144.73;100.00;54461.06;5041588;28;20053;-77
2023/04/12 01:53:48;;;;;;;35.60;10.25;;;;;;;-144.73;100.00;54489.81;5019770;28;20025;-73
2023/04/12 01:56:16;;;;;;;43.03;13.02;;;;;;;-144.73;100.00;54452.84;5027619;28;20415;-74
2023/04/12 01:58:45;;;;;;;35.53;12.25;;;;;;;-144.73;100.00;54452.84;5030337;28;20043;-73
2023/04/12 02:01:14;;;;;;;26.70;11.85;;;;;;;-144.73;100.00;54459.00;5043407;28;20048;-74
2023/04/12 02:03:43;;;;;;;37.45;12.52;;;;;;;-144.73;100.00;54448.75;5038186;28;20033;-73
2023/04/12 02:06:09;;;;;;;25.90;10.50;;;;;;;-144.73;100.00;54463.13;5042036;28;20033;-73
2023/04/12 02:08:36;;;;;;;28.30;11.35;;;;;;;-144.73;100.00;54461.06;5026070;28;20030;-73
2023/04/12 02:11:08;;;;;;;22.92;9.32;;;;;;;-144.73;100.00;54436.44;5041643;28;20029;-73
2023/04/12 02:13:33;;;;;;;23.02;10.10;;;;;;;-144.73;100.00;54498.00;5026081;28;20029;-73
2023/04/12 02:16:01;;;;;;;25.88;8.30;;;;;;;-144.73;100.00;54444.66;5048147;28;20034;-74
2023/04/12 02:18:27;;;;;;;26.13;8.77;;;;;;;-144.73;100.00;54485.69;5043989;28;20021;-73
2023/04/12 02:20:53;;;;;;;20.08;8.57;;;;;;;-144.73;100.00;54500.06;5006816;28;20037;-73
2023/04/12 02:23:19;;;;;;;17.05;7.95;;;;;;;-144.73;100.00;54448.75;5039201;28;20025;-73
2023/04/12 02:25:45;;;;;;;30.15;8.10;;;;;;;-144.73;100.00;54469.28;5024029;28;20377;-73
2023/04/12 02:28:12;;;;;;;21.25;8.00;;;;;;;-144.73;100.00;54485.69;5036382;28;20021;-74
2023/04/12 02:30:37;;;;;;;19.55;7.65;;;;;;;-144.73;100.00;54444.66;5013352;28;20489;-73
2023/04/12 02:33:04;;;;;;;19.17;9.02;;;;;;;-144.73;100.00;54469.28;5016164;28;20032;-73
2023/04/12 02:35:30;;;;;;;18.70;7.47;;;;;;;-144.73;100.00;54493.91;5014905;28;20034;-74
2023/04/12 02:37:56;;;;;;;19.35;7.05;;;;;;;-144.73;100.00;54461.06;5020425;28;20119;-74
2023/04/12 02:40:22;;;;;;;22.42;7.70;;;;;;;-144.73;100.00;54477.47;5039775;28;20057;-74
2023/04/12 02:42:47;;;;;;;24.70;8.80;;;;;;;-144.73;100.00;54413.84;5044222;28;20028;-74
2023/04/12 02:45:13;;;;;;;18.67;7.45;;;;;;;-144.73;100.00;54444.66;5037621;28;20020;-74
2023/04/12 02:47:39;;;;;;;26.35;8.15;;;;;;;-144.73;100.00;54489.81;5041922;28;20026;-74
2023/04/12 02:50:05;;;;;;;25.85;7.63;;;;;;;-144.73;100.00;54485.69;5020544;28;20173;-74
2023/04/12 02:52:32;;;;;;;20.55;6.65;;;;;;;-144.73;100.00;54436.44;5021427;28;20025;-73
2023/04/12 02:54:58;;;;;;;20.17;6.80;;;;;;;-144.73;100.00;54477.47;5041206;28;20025;-74
2023/04/12 02:57:24;;;;;;;24.30;6.78;;;;;;;-144.73;100.00;54477.47;5041585;28;20068;-74
2023/04/12 02:59:53;;;;;;;12.50;4.88;;;;;;;-144.73;100.00;54473.38;5044238;28;20029;-74
2023/04/12 03:02:19;;;;;;;18.55;5.20;;;;;;;-144.73;100.00;54448.75;5041929;28;20041;-74
2023/04/12 03:04:45;;;;;;;26.05;5.30;;;;;;;-144.73;100.00;54461.06;5019021;28;20025;-74
2023/04/12 03:07:12;;;;;;;16.00;5.03;;;;;;;-144.73;100.00;54456.97;5023598;28;20392;-74
2023/04/12 03:09:37;;;;;;;23.60;7.32;;;;;;;-144.73;100.00;54426.16;5041946;28;20022;-73
2023/04/12 03:12:03;;;;;;;14.50;5.63;;;;;;;-144.73;100.00;54452.84;5019424;28;20033;-73
2023/04/12 03:14:28;;;;;;;26.13;4.75;;;;;;;-144.73;100.00;54454.91;5030066;28;20033;-73
2023/04/12 03:16:53;;;;;;;9.35;4.35;;;;;;;-144.73;100.00;54469.28;5037588;28;20557;-74
2023/04/12 03:19:19;;;;;;;12.80;4.63;;;;;;;-144.73;100.00;54444.66;5022150;28;20056;-74
2023/04/12 03:21:45;;;;;;;16.90;4.15;;;;;;;-144.73;100.00;54469.28;5046111;28;20033;-74
2023/04/12 03:24:10;;;;;;;14.57;4.38;;;;;;;-144.73;100.00;54491.84;5045379;28;20017;-74
2023/04/12 03:26:35;;;;;;;22.13;5.22;;;;;;;-144.73;100.00;54444.66;5041223;28;20128;-73
2023/04/12 03:29:07;;;;;;;13.65;3.88;;;;;;;-144.73;100.00;54448.75;5039240;28;20025;-74
2023/04/12 03:31:33;;;;;;;16.52;4.72;;;;;;;-144.73;100.00;54502.13;5019482;28;20025;-74
2023/04/12 03:33:59;;;;;;;17.75;4.78;;;;;;;-144.73;100.00;54446.69;5045579;28;20025;-73
2023/04/12 03:36:26;;;;;;;15.90;4.07;;;;;;;-144.73;100.00;54444.66;5043835;28;20041;-74
2023/04/12 03:38:52;;;;;;;14.93;4.15;;;;;;;-144.73;100.00;54481.59;5014268;28;20108;-74
2023/04/12 03:41:18;;;;;;;11.02;2.97;;;;;;;-144.73;100.00;54467.22;5032589;28;20029;-73
2023/04/12 03:43:43;;;;;;;10.50;2.72;;;;;;;-144.73;100.00;54473.38;5017869;28;20152;-72
2023/04/12 03:46:08;;;;;;;13.40;3.33;;;;;;;-144.73;100.00;54456.97;5017068;28;20025;-72
2023/04/12 03:48:35;;;;;;;18.73;3.03;;;;;;;-144.73;100.00;54514.44;5038937;28;20021;-72
2023/04/12 03:51:06;;;;;;;18.88;3.05;;;;;;;-144.73;100.00;54465.16;5022030;28;20041;-72
2023/04/12 03:53:31;;;;;;;18.98;3.38;;;;;;;-144.73;100.00;54428.22;5039441;28;20022;-72
2023/04/12 03:55:57;;;;;;;14.90;2.53;;;;;;;-144.73;100.00;54442.59;5024308;28;20090;-72
2023/04/12 03:58:22;;;;;;;19.08;3.03;;;;;;;-144.73;100.00;54428.22;5044363;28;20025;-72
2023/04/12 04:00:48;;;;;;;17.15;4.15;;;;;;;-144.73;100.00;54448.75;5033355;28;20581;-73
2023/04/12 04:03:14;;;;;;;18.75;3.20;;;;;;;-144.73;100.00;54510.31;5025677;28;20040;-73
2023/04/12 04:05:40;;;;;;;12.68;2.92;;;;;;;-144.73;100.00;54493.91;5038148;28;20400;-73
2023/04/12 04:08:07;;;;;;;12.75;3.03;;;;;;;-144.73;100.00;54498.00;5045840;28;20104;-72
2023/04/12 04:10:32;;;;;;;19.98;2.70;;;;;;;-144.73;100.00;54487.75;5029822;28;20104;-73
2023/04/12 04:12:57;;;;;;;11.43;2.88;;;;;;;-144.73;100.00;54461.06;5031785;28;20024;-73
2023/04/12 04:15:26;;;;;;;11.65;2.40;;;;;;;-144.73;100.00;54485.69;5045209;28;20029;-73
2023/04/12 04:17:51;;;;;;;13.73;2.53;;;;;;;-144.73;100.00;54456.97;5038100;28;20118;-73
2023/04/12 04:20:17;;;;;;;8.95;2.22;;;;;;;-144.73;100.00;54473.38;5050063;28;20119;-73
2023/04/12 04:22:47;;;;;;;13.32;3.00;;;;;;;-144.73;100.00;54461.06;5017213;28;20017;-74
2023/04/12 04:25:13;;;;;;;19.38;3.30;;;;;;;-144.73;100.00;54456.97;5016621;28;20022;-74
2023/04/12 04:27:45;;;;;;;19.75;3.20;;;;;;;-144.73;100.00;54456.97;5019970;28;20046;-74
2023/04/12 04:30:11;;;;;;;;;;;;;;;-144.73;100.00;54456.97;5015768;28;20088;-73
2023/04/12 04:32:38;;;;;;;10.82;2.70;;;;;;;-144.73;100.00;54485.69;5045782;28;19905;-72
2023/04/12 04:35:04;;;;;;;7.78;3.03;;;;;;;-144.73;100.00;54473.38;5037686;28;20476;-72
2023/04/12 04:37:30;;;;;;;14.68;3.35;;;;;;;-144.73;100.00;54473.38;5045554;28;20036;-73
2023/04/12 04:39:56;;;;;;;13.55;3.17;;;;;;;-144.73;100.00;54481.59;5032903;28;20041;-73
2023/04/12 04:42:24;;;;;;;19.58;3.35;;;;;;;-144.73;100.00;54465.16;5049015;28;20033;-73
2023/04/12 04:45:01;;;;;;;9.98;2.42;;;;;;;-144.73;100.00;54469.28;5036943;28;20036;-73
2023/04/12 04:47:29;;;;;;;25.67;4.50;;;;;;;-144.73;100.00;54477.47;5016381;28;20042;-73
2023/04/12 04:49:55;;;;;;;12.68;2.95;;;;;;;-144.73;100.00;54456.97;5033833;28;20033;-73
2023/04/12 04:52:20;;;;;;;15.48;3.28;;;;;;;-144.73;100.00;54493.91;5039970;28;20066;-73
2023/04/12 04:54:46;;;;;;;17.88;3.20;;;;;;;-144.73;100.00;54465.16;5036295;28;20037;-73
2023/04/12 04:57:11;;;;;;;20.05;3.67;;;;;;;-144.73;100.00;54475.44;5068475;28;20094;-74
2023/04/12 04:59:36;;;;;;;15.50;3.58;;;;;;;-144.73;100.00;54473.38;5027385;28;20030;-73
2023/04/12 05:02:02;;;;;;;12.65;3.28;;;;;;;-144.73;100.00;54477.47;5030435;28;20045;-73
2023/04/12 05:04:27;;;;;;;8.40;3.05;;;;;;;-144.73;100.00;54465.16;5025652;28;20026;-73
2023/04/12 05:06:53;;;;;;;11.48;3.08;;;;;;;-144.73;100.00;54452.84;5017783;28;20045;-73
2023/04/12 05:09:18;;;;;;;16.35;3.15;;;;;;;-144.73;100.00;54522.63;5028718;28;20116;-74
2023/04/12 05:11:43;;;;;;;14.35;2.78;;;;;;;-144.73;100.00;54485.69;5035842;28;20037;-73
2023/04/12 05:14:08;;;;;;;7.35;2.65;;;;;;;-144.73;100.00;54483.66;5028397;28;20135;-74
2023/04/12 05:16:34;;;;;;;9.65;2.80;;;;;;;-144.73;100.00;54489.81;5040609;28;20041;-73
2023/04/12 05:18:59;;;;;;;21.30;3.67;;;;;;;-144.73;100.00;54481.59;5037311;28;20026;-73
2023/04/12 05:21:25;;;;;;;16.15;2.83;;;;;;;-144.73;100.00;54452.84;5019884;28;20050;-72
2023/04/12 05:23:50;;;;;;;13.43;3.53;;;;;;;-144.73;100.00;54498.00;5032524;28;20081;-72
2023/04/12 05:26:15;;;;;;;13.20;2.63;;;;;;;-144.73;100.00;54498.00;5046862;28;20037;-73
2023/04/12 05:28:41;;;;;;;15.75;2.90;;;;;;;-144.73;100.00;54465.16;5037160;28;20132;-74
2023/04/12 05:31:07;;;;;;;15.15;3.28;;;;;;;-144.73;100.00;54440.53;5020073;28;20515;-73
2023/04/12 05:33:33;;;;;;;16.40;3.28;;;;;;;-144.73;100.00;54475.44;5035367;28;20025;-73
2023/04/12 05:36:19;;;;;;;10.80;4.03;;;;;;;-144.73;100.00;54440.53;5024009;28;20037;-74
2023/04/12 05:38:44;;;;;;;11.38;2.80;;;;;;;-144.73;100.00;54456.97;5057801;28;20017;-74
2023/04/12 05:41:10;;;;;;;10.85;2.53;;;;;;;-144.73;100.00;54448.75;5039008;28;20033;-74
2023/04/12 05:43:36;;;;;;;16.00;3.28;;;;;;;-144.73;100.00;54481.59;5039729;28;20021;-74
2023/04/12 05:46:02;;;;;;;8.38;2.97;;;;;;;-144.73;100.00;54489.81;5056810;28;20033;-73
2023/04/12 05:48:27;;;;;;;16.25;3.10;;;;;;;-144.73;99.12;54407.69;5039530;28;20116;-73
2023/04/12 05:50:53;;;;;;;25.00;3.90;;;;;;;-144.73;99.57;54481.59;5033799;28;20147;-73
2023/04/12 05:53:20;;;;;;;16.92;3.25;;;;;;;-144.73;99.45;54432.31;5035177;28;20029;-73
2023/04/12 05:55:45;;;;;;;8.88;3.05;;;;;;;-144.73;99.70;54444.66;5035608;28;20037;-73
2023/04/12 05:58:11;;;;;;;11.35;3.20;;;;;;;-144.73;98.83;54440.53;5035423;28;20017;-70
2023/04/12 06:00:38;;;;;;;15.35;2.78;;;;;;;-144.73;97.42;54454.91;5021386;28;20026;-70
2023/04/12 06:03:04;;;;;;;12.77;2.70;;;;;;;-144.73;95.01;54454.91;5017151;28;20018;-69
2023/04/12 06:05:29;;;;;;;9.55;2.13;;;;;;;-144.73;93.29;54446.69;5025877;28;20040;-69
2023/04/12 06:07:54;;;;;;;12.02;3.05;;;;;;;-144.73;93.47;54442.59;5020355;28;20468;-69
2023/04/12 06:10:20;;;;;;;11.88;2.83;;;;;;;-144.73;93.75;54420.00;5035689;28;20385;-69
2023/04/12 06:12:46;;;;;;;13.30;2.72;;;;;;;-144.73;92.67;54485.69;5041380;28;20052;-69
2023/04/12 06:15:11;;;;;;;11.70;2.88;;;;;;;-144.73;92.63;54461.06;5041047;28;20047;-69
2023/04/12 06:17:37;;;;;;;13.45;2.53;;;;;;;-144.73;91.12;54411.81;5019662;28;20025;-69
2023/04/12 06:20:09;;;;;;;14.48;2.50;;;;;;;-144.73;90.29;54469.28;5047423;28;20021;-70
2023/04/12 06:22:35;;;;;;;12.63;2.38;;;;;;;-144.73;90.31;54481.59;5043161;28;20013;-70
2023/04/12 06:25:01;;;;;;;8.80;2.60;;;;;;;-144.73;89.43;54459.00;5015018;28;20021;-70
2023/04/12 06:27:26;;;;;;;7.75;2.67;;;;;;;-144.73;88.92;54450.81;5054711;28;20028;-70
2023/04/12 06:29:52;;;;;;;11.75;2.38;;;;;;;-144.73;87.68;54444.66;5040993;28;20070;-70
2023/04/12 06:32:17;;;;;;;10.50;2.85;;;;;;;-144.73;86.24;54481.59;5032171;28;20493;-69
2023/04/12 06:34:42;;;;;;;10.63;3.28;;;;;;;-144.73;85.90;54461.06;5061859;28;20027;-70
2023/04/12 06:37:08;;;;;;;12.05;3.05;;;;;;;-144.73;85.65;54456.97;5021197;28;20052;-70
2023/04/12 06:39:33;;;;;;;13.73;2.80;;;;;;;-144.73;85.10;54459.00;5032155;28;20396;-69
2023/04/12 06:41:58;;;;;;;7.30;2.38;;;;;;;-144.73;84.59;54477.47;5039178;28;20040;-70
2023/04/12 06:44:25;;;;;;;8.57;2.25;;;;;;;-144.73;83.50;54444.66;5016395;28;20025;-69
2023/04/12 06:46:51;;;;;;;12.38;2.15;;;;;;;-144.73;83.27;54506.22;5041221;28;20488;-69
2023/04/12 06:49:16;;;;;;;12.70;3.47;;;;;;;-144.73;83.36;54473.38;5024862;28;20106;-70
2023/04/12 06:51:42;;;;;;;10.80;2.65;;;;;;;-144.73;82.31;54502.13;5038310;28;20112;-70
2023/04/12 06:54:08;;;;;;;17.02;2.97;;;;;;;-144.73;80.97;54424.13;5040048;28;20052;-70
2023/04/12 06:56:36;;;;;;;9.40;2.42;;;;;;;-144.73;81.10;54469.28;5001301;28;20061;-69
2023/04/12 06:59:01;;;;;;;15.15;2.65;;;;;;;-144.73;81.08;54448.75;5017404;28;20029;-69
2023/04/12 07:01:27;;;;;;;5.20;1.90;;;;;;;-144.73;80.51;54446.69;5008033;28;20104;-69
2023/04/12 07:03:52;;;;;;;9.23;3.10;;;;;;;-144.73;80.76;54528.81;5010893;28;20021;-69
2023/04/12 07:06:17;;;;;;;13.20;3.05;;;;;;;-144.73;79.13;54444.66;5033089;28;20052;-70
2023/04/12 07:08:43;;;;;;;16.13;2.92;;;;;;;-144.73;79.68;54452.84;5037473;28;20112;-69
2023/04/12 07:11:08;;;;;;;7.90;2.55;;;;;;;-144.73;80.41;54469.28;5021771;28;20031;-69
2023/04/12 07:13:33;;;;;;;13.93;2.90;;;;;;;-144.73;80.42;54461.06;5010477;28;20029;-69
2023/04/12 07:16:02;;;;;;;11.82;3.53;;;;;;;-144.73;79.24;54475.44;5010353;28;20037;-71
2023/04/12 07:18:31;;;;;;;12.52;3.42;;;;;;;-144.73;79.15;54428.22;5001231;28;20036;-71
2023/04/12 07:21:07;;;;;;;13.32;2.83;;;;;;;-144.73;78.62;54461.06;5028782;28;20037;-70
2023/04/12 07:23:33;;;;;;;11.10;2.85;;;;;;;-144.73;78.04;54454.91;4999300;28;20047;-70
2023/04/12 07:26:00;;;;;;;7.97;2.75;;;;;;;-144.73;79.11;54481.59;5021544;28;20096;-71
2023/04/12 07:28:29;;;;;;;8.20;2.97;;;;;;;-144.73;79.05;54459.00;5007695;28;20029;-70
2023/04/12 07:30:54;;;;;;;8.77;2.58;;;;;;;-144.73;78.43;54432.31;5021234;28;20029;-71
2023/04/12 07:33:20;;;;;;;13.82;3.20;;;;;;;-144.73;79.23;54442.59;5020355;28;20031;-70
2023/04/12 07:35:46;;;;;;;6.63;2.63;;;;;;;-144.73;79.65;54424.13;5031587;28;20044;-70
2023/04/12 07:38:12;;;;;;;9.98;3.00;;;;;;;-144.73;79.95;54436.44;5051223;28;20022;-71
2023/04/12 07:40:41;;;;;;;15.18;2.50;;;;;;;-144.73;78.87;54467.22;5045991;28;20033;-71
2023/04/12 07:43:07;;;;;;;10.15;2.70;;;;;;;-144.73;78.45;54506.22;5017327;28;20031;-70
2023/04/12 07:45:36;;;;;;;8.20;3.03;;;;;;;-144.73;79.12;54428.22;5019644;28;20025;-71
2023/04/12 07:48:02;;;;;;;8.57;2.90;;;;;;;-144.73;77.64;54473.38;5024576;28;20023;-71
2023/04/12 07:50:28;;;;;;;30.75;3.40;;;;;;;-144.73;78.13;54493.91;5019377;28;20044;-71
2023/04/12 07:52:57;;;;;;;15.60;3.22;;;;;;;-144.73;76.77;54489.81;5012123;28;20030;-71
2023/04/12 07:55:23;;;;;;;6.55;2.60;;;;;;;-144.73;76.41;54456.97;5014298;28;20116;-70
2023/04/12 07:57:49;;;;;;;7.43;3.00;;;;;;;-144.73;76.60;54417.97;5017507;28;20087;-70
2023/04/12 08:00:16;;;;;;;12.23;3.50;;;;;;;-144.73;76.49;54461.06;5015364;28;20033;-70
2023/04/12 08:02:54;;;;;;;5.43;2.25;;;;;;;-144.73;75.43;54456.97;5026806;28;20083;-71
2023/04/12 08:05:20;;;;;;;9.68;2.85;;;;;;;-144.73;75.66;54456.97;5012995;28;20037;-71
2023/04/12 08:07:46;;;;;;;9.73;2.80;;;;;;;-144.73;75.43;54477.47;5042741;28;20622;-69
2023/04/12 08:10:12;;;;;;;11.43;2.80;;;;;;;-144.73;73.51;54448.75;5025497;28;20040;-70
2023/04/12 08:12:40;;;;;;;10.80;3.30;;;;;;;-144.73;74.60;54473.38;5015002;28;20025;-70
2023/04/12 08:15:06;;;;;;;10.02;2.92;;;;;;;-144.73;74.17;54448.75;5012674;28;20037;-69
2023/04/12 08:17:31;;;;;;;11.68;3.40;;;;;;;-144.73;73.23;54424.13;5011828;28;20110;-70
2023/04/12 08:19:57;;;;;;;10.27;3.05;;;;;;;-144.73;72.10;54440.53;5010303;28;20145;-70
2023/04/12 08:22:23;;;;;;;9.60;2.67;;;;;;;-144.73;72.87;54481.59;5016075;28;20105;-70
2023/04/12 08:24:49;;;;;;;10.07;2.80;;;;;;;-144.73;71.74;54456.97;5018533;28;20037;-70
2023/04/12 08:27:18;;;;;;;6.60;2.28;;;;;;;-144.73;71.49;54436.44;5017824;28;20020;-70
2023/04/12 08:29:54;;;;;;;9.30;2.78;;;;;;;-144.73;71.84;54463.13;5003669;28;20041;-70
2023/04/12 08:32:29;;;;;;;9.80;2.92;;;;;;;-144.73;71.94;54446.69;5040985;28;20067;-70
2023/04/12 08:35:21;;;;;;;13.63;3.97;;;;;;;-144.73;71.18;54415.91;5011823;28;20046;-71
2023/04/12 08:38:05;;;;;;;9.68;3.78;;;;;;;-144.73;71.59;54450.81;5014479;28;20062;-70
2023/04/12 08:40:31;;;;;;;10.80;3.15;;;;;;;-144.73;70.41;54448.75;5032233;28;20112;-70
2023/04/12 08:43:01;;;;;;;11.35;3.10;;;;;;;-144.73;71.08;54465.16;5012128;28;20152;-70
2023/04/12 08:45:32;;;;;;;10.75;3.40;;;;;;;-144.73;71.23;54442.59;5007656;28;20033;-70
2023/04/12 08:48:05;;;;;;;11.13;3.03;;;;;;;-144.73;71.21;54452.84;5007034;28;20025;-70
2023/04/12 08:50:33;;;;;;;10.93;3.30;;;;;;;-144.73;70.93;54432.31;5020422;28;20033;-70
2023/04/12 08:53:05;;;;;;;7.53;2.88;;;;;;;-144.73;71.42;54411.81;5008312;28;20033;-70
2023/04/12 08:55:36;;;;;;;15.10;3.42;;;;;;;-144.73;71.84;54473.38;5008333;28;20029;-71
2023/04/12 08:58:40;;;;;;;;;;;;;;;;;;;;;
2023/04/12 09:01:29;;;;;;;9.73;3.83;;;;;;;-144.73;71.22;54459.00;5029981;28;20048;-69
2023/04/12 09:04:14;;;;;;;13.15;3.75;;;;;;;-144.73;71.46;54456.97;5004782;28;20032;-70
2023/04/12 09:06:46;;;;;;;10.57;3.38;;;;;;;-144.73;71.75;54440.53;5026492;28;20041;-71
2023/04/12 09:09:15;;;;;;;10.77;3.33;;;;;;;-144.73;71.59;54516.47;5007049;28;20034;-69
2023/04/12 09:11:40;;;;;;;14.25;3.50;;;;;;;-144.73;70.70;54432.31;5007645;28;20029;-69
2023/04/12 09:14:22;;;;;;;11.73;3.53;;;;;;;-144.73;70.23;54436.44;5014331;28;20041;-69
2023/04/12 09:16:49;;;;;;;12.70;3.38;;;;;;;-144.73;69.29;54450.81;5021558;28;20060;-69
2023/04/12 09:19:15;;;;;;;13.38;3.92;;;;;;;-144.73;69.82;54448.75;5021741;28;20037;-69
2023/04/12 09:22:06;;;;;;;9.30;3.03;;;;;;;-144.73;69.94;54448.75;5007370;28;20033;-69
2023/04/12 09:24:44;;;;;;;;;;;;;;;-144.73;69.62;54469.28;5017601;28;20034;-69
2023/04/12 09:27:09;;;;;;;11.80;3.15;;;;;;;-144.73;69.60;54461.06;5025088;28;19909;-68
2023/04/12 09:29:35;;;;;;;14.00;4.05;;;;;;;-144.73;68.28;54465.16;5020691;28;20044;-68
2023/04/12 09:32:06;;;;;;;11.80;3.15;;;;;;;-144.73;68.06;54465.16;5022635;28;20025;-69
2023/04/12 09:34:34;;;;;;;19.97;3.47;;;;;;;-144.73;68.37;54424.13;5002470;28;20029;-69
2023/04/12 09:37:11;;;;;;;9.55;3.03;;;;;;;-144.73;68.45;54446.69;5009699;28;20152;-69
2023/04/12 09:39:37;;;;;;;10.25;2.53;;;;;;;-144.73;68.64;54461.06;5034655;28;20136;-69
2023/04/12 09:42:13;;;;;;;9.13;2.80;;;;;;;-144.73;68.88;54485.69;5006126;28;20088;-69
2023/04/12 09:44:39;;;;;;;13.73;2.78;;;;;;;-144.73;68.11;54461.06;5010502;28;20516;-70
2023/04/12 09:47:05;;;;;;;10.65;2.78;;;;;;;-144.73;67.93;54426.16;5010566;28;20021;-70
2023/04/12 09:49:38;;;;;;;12.85;2.70;;;;;;;-144.73;67.74;54436.44;5028845;28;20186;-70
2023/04/12 09:52:07;;;;;;;9.82;2.35;;;;;;;-144.73;67.39;54456.97;5013368;28;20029;-70
2023/04/12 09:54:49;;;;;;;7.57;2.75;;;;;;;-144.73;67.61;54469.28;5007534;28;20065;-69
2023/04/12 09:57:16;;;;;;;;;;;;;;;-144.73;67.02;54454.91;5029807;28;20025;-69
2023/04/12 09:59:43;;;;;;;11.88;2.75;;;;;;;-144.73;67.43;54469.28;5005889;28;20367;-69
2023/04/12 10:02:18;;;;;;;11.90;2.70;;;;;;;-144.73;68.70;54452.84;5028652;28;20052;-69
2023/04/12 10:04:44;;;;;;;13.30;2.90;;;;;;;-144.73;67.93;54424.13;5051559;28;20113;-70
2023/04/12 10:07:11;;;;;;;11.68;3.45;;;;;;;-144.73;68.00;54391.28;5014229;28;20179;-69
2023/04/12 10:09:38;;;;;;;13.43;2.90;;;;;;;-144.73;68.31;54426.16;5013056;28;20054;-70
2023/04/12 10:12:04;;;;;;;15.00;3.20;;;;;;;-144.73;68.38;54493.91;5012206;28;20056;-69
2023/04/12 10:14:30;;;;;;;10.90;2.80;;;;;;;-144.73;68.52;54424.13;5032779;28;20073;-69
2023/04/12 10:16:57;;;;;;;9.20;3.42;;;;;;;-144.73;68.32;54407.69;5034477;28;20021;-69
2023/04/12 10:19:29;;;;;;;15.68;3.60;;;;;;;-144.73;69.14;54436.44;5036129;28;20044;-69
2023/04/12 10:21:58;;;;;;;10.02;3.38;;;;;;;-144.73;68.72;54452.84;5015320;28;20056;-69
2023/04/12 10:24:25;;;;;;;11.85;2.90;;;;;;;-144.73;68.13;54420.00;5021271;28;20029;-70
2023/04/12 10:26:54;;;;;;;8.70;3.40;;;;;;;-144.73;68.14;54448.75;5012894;28;20018;-69
2023/04/12 10:29:27;;;;;;;11.73;3.35;;;;;;;-144.73;68.74;54428.22;5012048;28;20037;-69
2023/04/12 10:31:56;;;;;;;13.55;3.35;;;;;;;-144.73;68.74;54436.44;5040947;28;20100;-68
2023/04/12 10:34:29;;;;;;;15.82;2.97;;;;;;;-144.73;68.76;54424.13;5020262;28;20025;-68
2023/04/12 10:36:59;;;;;;;16.05;3.42;;;;;;;-144.73;70.64;54415.91;5017716;28;20024;-69
2023/04/12 10:39:42;;;;;;;13.65;2.78;;;;;;;-144.73;70.69;54436.44;5013755;28;20053;-69
2023/04/12 10:42:43;;;;;;;16.27;3.50;;;;;;;-144.73;71.93;54424.13;5013275;28;20032;-69
2023/04/12 10:45:23;;;;;;;9.48;2.85;;;;;;;-144.73;72.45;54420.00;4977797;28;20034;-68
2023/04/12 10:47:48;;;;;;;10.30;2.97;;;;;;;-144.73;73.42;54399.50;5025907;28;20022;-69
2023/04/12 10:50:23;;;;;;;17.92;3.42;;;;;;;-144.73;72.70;54456.97;5035758;28;20044;-69
2023/04/12 10:53:20;;;;;;;14.70;2.88;;;;;;;-144.73;73.80;54469.28;5011939;28;20017;-70
2023/04/12 10:55:46;;;;;;;7.13;2.60;;;;;;;-144.73;74.57;54407.69;5037486;28;20052;-70
2023/04/12 10:58:49;;;;;;;9.05;2.70;;;;;;;-144.73;75.36;54444.66;5016137;28;20095;-70
2023/04/12 11:01:17;;;;;;;9.60;3.10;;;;;;;-144.73;75.88;54407.69;5033646;28;20029;-69
2023/04/12 11:04:05;;;;;;;13.38;2.90;;;;;;;-144.73;78.60;54452.84;5020800;28;20032;-69
2023/04/12 11:07:03;;;;;;;10.95;3.33;;;;;;;-144.73;78.00;54424.13;5009983;28;20020;-69
2023/04/12 11:09:32;;;;;;;8.65;2.55;;;;;;;-144.73;79.89;54456.97;5034390;28;20082;-69
2023/04/12 11:12:03;;;;;;;15.77;3.40;;;;;;;-144.73;83.28;54434.38;5046494;28;20099;-69
2023/04/12 11:14:34;;;;;;;24.58;3.15;;;;;;;-144.73;84.03;54424.13;5015010;28;20045;-69